Time;durP1;ratioP1;P1;durP2;ratioP2;P2;SDS_P1;SDS_P2;PMS_P1;PMS_P2;Temp;Humidity;BMP_temperature;BMP_pressure;BME280_temperature;BME280_humidity;BME280_pressure;Samples;Min_cycle;Max_cycle;Signal;HPM_P1;HPM_P2
2022/12/24 00:01:23;;;;;;;4.82;0.98;;;12.80;99.90;;;;;;4988791;28;20047;-71
2022/12/24 00:03:49;;;;;;;1.38;0.77;;;12.80;99.90;;;;;;4983722;28;20064;-71
2022/12/24 00:06:19;;;;;;;3.63;1.00;;;12.90;99.90;;;;;;4989240;28;20038;-70
2022/12/24 00:08:44;;;;;;;7.78;2.40;;;12.80;99.90;;;;;;4955597;28;20053;-71
2022/12/24 00:11:10;;;;;;;10.60;4.32;;;12.80;99.90;;;;;;4970084;28;20555;-71
2022/12/24 00:13:36;;;;;;;3.58;1.00;;;12.70;99.90;;;;;;4972604;28;20110;-69
2022/12/24 00:16:06;;;;;;;1.33;0.65;;;12.70;99.90;;;;;;4991518;28;20559;-72
2022/12/24 00:18:32;;;;;;;3.78;0.88;;;12.60;99.90;;;;;;4981783;28;20435;-71
2022/12/24 00:20:58;;;;;;;6.78;1.83;;;12.60;99.90;;;;;;4991249;28;20046;-71
2022/12/24 00:23:24;;;;;;;1.73;0.52;;;12.60;99.90;;;;;;4967657;28;20073;-71
2022/12/24 00:25:49;;;;;;;6.72;1.52;;;12.50;99.90;;;;;;4973909;28;20057;-71
2022/12/24 00:28:16;;;;;;;3.45;0.60;;;12.60;99.90;;;;;;4980617;28;20039;-71
2022/12/24 00:30:42;;;;;;;4.78;1.15;;;12.50;99.90;;;;;;4971702;28;20037;-71
2022/12/24 00:33:08;;;;;;;3.10;1.02;;;12.50;99.90;;;;;;4964238;28;20037;-72
2022/12/24 00:35:35;;;;;;;9.43;0.95;;;12.50;99.90;;;;;;4973900;28;20030;-72
2022/12/24 00:38:02;;;;;;;9.07;1.05;;;12.50;99.90;;;;;;4966752;28;20034;-71
2022/12/24 00:40:29;;;;;;;5.20;0.82;;;12.50;99.90;;;;;;4973663;28;20134;-71
2022/12/24 00:42:56;;;;;;;0.65;0.43;;;12.60;99.90;;;;;;4966508;28;20555;-72
2022/12/24 00:45:21;;;;;;;5.00;1.23;;;12.70;99.90;;;;;;4988460;28;20482;-72
2022/12/24 00:47:47;;;;;;;4.20;0.43;;;12.60;99.90;;;;;;4966681;28;20074;-72
2022/12/24 00:50:13;;;;;;;5.30;1.48;;;12.60;99.90;;;;;;4973245;28;20038;-72
2022/12/24 00:52:39;;;;;;;10.73;1.40;;;12.50;99.90;;;;;;4966924;28;20062;-71
2022/12/24 00:55:05;;;;;;;6.43;1.05;;;12.50;99.90;;;;;;4973639;28;20490;-72
2022/12/24 00:57:31;;;;;;;5.72;0.80;;;12.40;99.90;;;;;;4967549;28;20490;-71
2022/12/24 00:59:57;;;;;;;2.58;0.50;;;12.30;99.90;;;;;;4984630;28;20034;-71
2022/12/24 01:02:23;;;;;;;4.57;0.85;;;12.30;99.90;;;;;;4987337;28;20510;-71
2022/12/24 01:07:33;;;;;;;5.30;0.73;;;12.20;99.90;;;;;;4970412;28;20036;-71
2022/12/24 01:09:59;;;;;;;0.77;0.60;;;12.30;99.90;;;;;;4985104;28;20038;-72
2022/12/24 01:12:25;;;;;;;22.02;1.80;;;12.30;99.90;;;;;;4987069;28;20034;-71
2022/12/24 01:14:51;;;;;;;1.25;0.55;;;12.20;99.90;;;;;;4984087;28;20031;-72
2022/12/24 01:17:16;;;;;;;7.68;0.93;;;12.20;99.90;;;;;;4988098;28;20105;-72
2022/12/24 01:19:42;;;;;;;6.95;1.35;;;12.10;99.90;;;;;;4974797;28;20030;-71
2022/12/24 01:22:08;;;;;;;5.63;1.50;;;12.10;99.90;;;;;;4969471;28;20053;-72
2022/12/24 01:24:34;;;;;;;5.45;0.70;;;12.00;99.90;;;;;;4995485;23;20038;-78
2022/12/24 01:27:00;;;;;;;7.43;1.15;;;12.00;99.90;;;;;;4956669;28;20522;-80
2022/12/24 01:29:25;;;;;;;6.25;2.08;;;11.90;99.90;;;;;;4967156;28;20074;-79
2022/12/24 01:31:51;;;;;;;4.28;0.60;;;11.90;99.90;;;;;;4957770;28;20031;-79
2022/12/24 01:34:17;;;;;;;3.67;0.75;;;11.90;99.90;;;;;;4967751;28;20110;-79
2022/12/24 01:36:42;;;;;;;1.67;0.50;;;11.90;99.90;;;;;;4939110;28;20046;-79
2022/12/24 01:39:08;;;;;;;2.38;1.00;;;12.00;99.90;;;;;;4939285;29;20056;-79
2022/12/24 01:44:28;;;;;;;13.48;1.20;;;11.90;99.90;;;;;;4952349;29;20043;-79
2022/12/24 01:47:24;;;;;;;2.80;1.25;;;11.90;99.90;;;;;;4920729;29;20043;-79
2022/12/24 01:50:02;;;;;;;6.07;0.60;;;12.00;99.90;;;;;;4900913;29;20036;-78
2022/12/24 01:52:34;;;;;;;1.83;1.10;;;12.00;99.90;;;;;;4921556;29;20486;-80
2022/12/24 01:55:14;;;;;;;1.70;0.35;;;11.90;99.90;;;;;;4929448;29;20500;-78
2022/12/24 01:57:55;;;;;;;3.80;0.88;;;11.90;99.90;;;;;;4946496;29;20418;-78
2022/12/24 02:00:21;;;;;;;1.55;0.75;;;12.00;99.90;;;;;;4924759;29;20031;-78
2022/12/24 02:02:50;;;;;;;13.90;0.82;;;12.00;99.90;;;;;;4947180;29;20453;-79
2022/12/24 02:05:49;;;;;;;3.53;0.57;;;11.90;99.90;;;;;;4919186;29;20035;-78
2022/12/24 02:08:16;;;;;;;4.70;0.85;;;11.90;99.90;;;;;;4914617;29;20048;-79
2022/12/24 02:10:43;;;;;;;5.50;0.70;;;11.80;99.90;;;;;;4915445;29;20134;-79
2022/12/24 02:13:09;;;;;;;2.47;0.52;;;11.80;99.90;;;;;;4929722;29;20114;-78
2022/12/24 02:15:57;;;;;;;4.13;0.45;;;11.80;99.90;;;;;;4947415;28;20035;-79
2022/12/24 02:18:59;;;;;;;3.45;1.00;;;11.90;99.90;;;;;;4946718;29;20435;-78
2022/12/24 02:21:46;;;;;;;;;;;11.80;99.90;;;;;;4946495;29;20031;-77
2022/12/24 02:24:46;;;;;;;0.60;0.30;;;11.90;99.90;;;;;;4941663;29;20502;-78
2022/12/24 02:27:44;;;;;;;2.78;0.98;;;12.00;99.90;;;;;;4939524;29;20043;-78
2022/12/24 02:30:30;;;;;;;2.55;0.43;;;11.90;99.90;;;;;;4919268;29;20031;-78
2022/12/24 02:33:34;;;;;;;3.92;0.90;;;11.90;99.90;;;;;;4937133;29;20023;-78
2022/12/24 02:36:22;;;;;;;1.85;0.95;;;11.80;99.90;;;;;;4919959;29;20023;-78
2022/12/24 02:38:58;;;;;;;5.45;0.90;;;11.70;99.90;;;;;;4923462;29;20046;-78
2022/12/24 02:44:25;;;;;;;5.43;2.15;;;11.80;99.90;;;;;;4937892;28;20035;-77
2022/12/24 02:46:53;;;;;;;9.43;0.95;;;11.70;99.90;;;;;;4921849;29;20040;-78
2022/12/24 02:49:19;;;;;;;4.25;0.55;;;11.70;99.90;;;;;;4910378;29;20032;-78
2022/12/24 02:51:44;;;;;;;2.38;0.50;;;11.80;99.90;;;;;;4918624;29;20039;-78
2022/12/24 02:54:13;;;;;;;14.57;3.30;;;11.70;99.90;;;;;;4949917;29;20054;-78
2022/12/24 02:57:16;;;;;;;5.22;1.13;;;11.70;99.90;;;;;;4920618;29;20031;-78
2022/12/24 03:00:06;;;;;;;15.73;1.27;;;11.80;99.90;;;;;;4936222;29;20043;-77
2022/12/24 03:03:01;;;;;;;2.38;0.65;;;11.80;99.90;;;;;;4927825;29;20050;-78
2022/12/24 03:05:51;;;;;;;6.85;1.10;;;11.80;99.90;;;;;;4940585;28;20043;-79
2022/12/24 03:08:42;;;;;;;11.13;1.10;;;12.00;99.90;;;;;;4946075;29;20121;-79
2022/12/24 03:11:10;;;;;;;;;;;11.90;99.90;;;;;;4922859;29;20050;-79
2022/12/24 03:13:36;;;;;;;1.58;0.70;;;11.90;99.90;;;;;;4925647;29;20402;-79
2022/12/24 03:16:13;;;;;;;3.30;1.80;;;11.80;99.90;;;;;;4917090;29;20043;-80
2022/12/24 03:18:44;;;;;;;4.35;0.90;;;11.70;99.90;;;;;;4929397;29;20034;-80
2022/12/24 03:21:19;;;;;;;5.28;0.93;;;11.70;99.90;;;;;;4922843;29;20045;-80
2022/12/24 03:23:45;;;;;;;2.60;0.82;;;11.80;99.90;;;;;;4938524;29;20364;-80
2022/12/24 03:26:14;;;;;;;1.92;0.63;;;11.80;99.90;;;;;;4938565;28;20042;-80
2022/12/24 03:28:41;;;;;;;1.40;0.60;;;11.70;99.90;;;;;;4928755;29;20039;-80
2022/12/24 03:31:09;;;;;;;5.60;0.90;;;11.70;99.90;;;;;;4922548;29;20475;-80
2022/12/24 03:33:35;;;;;;;4.55;1.08;;;11.70;99.90;;;;;;4928299;29;20031;-81
2022/12/24 03:36:02;;;;;;;2.72;0.52;;;11.60;99.90;;;;;;4946220;28;20110;-81
2022/12/24 03:38:28;;;;;;;10.70;1.08;;;11.60;99.90;;;;;;4945134;29;20130;-81
2022/12/24 03:40:53;;;;;;;7.60;1.30;;;11.60;99.90;;;;;;4945505;28;20539;-81
2022/12/24 03:43:19;;;;;;;1.75;0.60;;;11.50;99.90;;;;;;4945527;29;20027;-81
2022/12/24 03:45:45;;;;;;;2.50;0.70;;;11.50;99.90;;;;;;4947143;28;20384;-81
2022/12/24 03:48:10;;;;;;;3.03;0.50;;;11.50;99.90;;;;;;4945182;29;20380;-80
2022/12/24 03:50:36;;;;;;;6.65;0.75;;;11.60;99.90;;;;;;4945686;29;20099;-78
2022/12/24 03:53:02;;;;;;;10.88;1.77;;;11.60;99.90;;;;;;4944844;28;20086;-79
2022/12/24 03:55:28;;;;;;;3.42;0.70;;;11.80;99.90;;;;;;4945698;28;20036;-79
2022/12/24 03:57:53;;;;;;;5.43;0.90;;;11.90;99.90;;;;;;4944477;28;20102;-79
2022/12/24 04:00:20;;;;;;;1.98;0.65;;;11.80;99.90;;;;;;4945237;29;20043;-80
2022/12/24 04:02:45;;;;;;;5.88;1.27;;;11.90;99.90;;;;;;4936526;28;20035;-80
2022/12/24 04:05:18;;;;;;;7.07;1.98;;;11.80;99.90;;;;;;4928937;29;20096;-79
2022/12/24 04:07:44;;;;;;;6.70;0.98;;;11.80;99.90;;;;;;4940711;29;20034;-79
2022/12/24 04:10:11;;;;;;;9.40;0.73;;;11.80;99.90;;;;;;4923859;29;20036;-79
2022/12/24 04:12:37;;;;;;;7.53;1.58;;;11.90;99.90;;;;;;4928951;29;20641;-79
2022/12/24 04:15:04;;;;;;;1.33;0.63;;;11.90;99.90;;;;;;4932005;29;20027;-79
2022/12/24 04:17:29;;;;;;;5.47;0.93;;;11.90;99.90;;;;;;4942905;29;20487;-79
2022/12/24 04:19:55;;;;;;;5.65;0.93;;;11.90;99.90;;;;;;4946461;29;20082;-79
2022/12/24 04:22:21;;;;;;;5.78;2.05;;;12.00;99.90;;;;;;4941985;29;20035;-79
2022/12/24 04:24:47;;;;;;;4.75;0.68;;;11.80;99.90;;;;;;4948937;28;20130;-79
2022/12/24 04:27:13;;;;;;;4.70;0.95;;;11.80;99.90;;;;;;4941322;29;20032;-80
2022/12/24 04:29:39;;;;;;;10.15;0.73;;;11.80;99.90;;;;;;4941713;29;20404;-80
2022/12/24 04:32:05;;;;;;;21.63;1.23;;;11.80;99.90;;;;;;4941090;29;20031;-79
2022/12/24 04:34:31;;;;;;;9.25;1.67;;;11.80;99.90;;;;;;4932623;28;20035;-79
2022/12/24 04:36:57;;;;;;;11.23;1.20;;;11.70;99.90;;;;;;4933241;29;20043;-80
2022/12/24 04:39:22;;;;;;;5.18;0.75;;;11.70;99.90;;;;;;4932993;29;20126;-80
2022/12/24 04:41:48;;;;;;;2.45;0.65;;;11.70;99.90;;;;;;4937226;29;20086;-80
2022/12/24 04:44:14;;;;;;;12.77;1.42;;;11.60;99.90;;;;;;4951262;29;20040;-80
2022/12/24 04:46:41;;;;;;;5.10;0.70;;;11.70;99.90;;;;;;4946032;28;20063;-80
2022/12/24 04:49:07;;;;;;;6.88;0.43;;;11.60;99.90;;;;;;4950567;29;20046;-80
2022/12/24 04:51:33;;;;;;;9.38;0.73;;;11.60;99.90;;;;;;4922079;29;20023;-80
2022/12/24 04:53:59;;;;;;;6.95;1.60;;;11.50;99.90;;;;;;4929392;29;20503;-80
2022/12/24 04:56:30;;;;;;;3.30;0.40;;;11.40;99.90;;;;;;4944257;28;20039;-80
2022/12/24 04:58:58;;;;;;;4.75;0.47;;;11.30;99.90;;;;;;4931874;29;20035;-80
2022/12/24 05:01:30;;;;;;;2.63;0.75;;;11.30;99.90;;;;;;4929641;29;20083;-80
2022/12/24 05:03:57;;;;;;;4.70;1.20;;;11.40;99.90;;;;;;4927061;29;20065;-80
2022/12/24 05:06:29;;;;;;;12.90;2.22;;;11.30;99.90;;;;;;4930649;29;20028;-80
2022/12/24 05:08:56;;;;;;;10.13;1.45;;;11.30;99.90;;;;;;4944866;29;20035;-81
2022/12/24 05:11:23;;;;;;;4.57;1.33;;;11.30;99.90;;;;;;4950461;29;20115;-80
2022/12/24 05:13:49;;;;;;;21.33;1.55;;;11.20;99.90;;;;;;4947827;29;20031;-80
2022/12/24 05:16:17;;;;;;;5.82;1.13;;;11.20;99.90;;;;;;4921387;29;20032;-80
2022/12/24 05:18:43;;;;;;;4.15;1.08;;;11.20;99.90;;;;;;4944079;29;20031;-80
2022/12/24 05:21:16;;;;;;;6.65;1.75;;;11.20;99.90;;;;;;4935886;29;20511;-80
2022/12/24 05:26:42;;;;;;;2.88;0.82;;;11.20;99.90;;;;;;4952767;28;20106;-80
2022/12/24 05:29:11;;;;;;;3.30;0.98;;;11.20;99.90;;;;;;4947385;29;20032;-80
2022/12/24 05:31:39;;;;;;;3.20;1.33;;;11.20;99.90;;;;;;4952054;29;20070;-80
2022/12/24 05:34:05;;;;;;;2.38;0.85;;;11.20;99.90;;;;;;4930275;29;20027;-80
2022/12/24 05:36:31;;;;;;;9.73;1.80;;;11.10;99.90;;;;;;4952535;28;20618;-80
2022/12/24 05:38:57;;;;;;;12.75;1.13;;;11.10;99.90;;;;;;4947386;29;20113;-80
2022/12/24 05:41:24;;;;;;;13.25;1.48;;;11.00;99.90;;;;;;4910239;29;20062;-80
2022/12/24 05:43:50;;;;;;;11.02;1.92;;;11.10;99.90;;;;;;4930666;29;20042;-80
2022/12/24 05:46:19;;;;;;;9.85;1.35;;;11.10;99.90;;;;;;4952467;28;20582;-80
2022/12/24 05:48:45;;;;;;;3.53;1.10;;;11.10;99.90;;;;;;4919346;29;20099;-80
2022/12/24 05:51:13;;;;;;;18.95;3.17;;;11.10;99.90;;;;;;4935117;29;20063;-81
2022/12/24 05:53:40;;;;;;;7.40;0.93;;;11.10;99.90;;;;;;4946670;29;20059;-80
2022/12/24 05:56:12;;;;;;;7.80;0.85;;;11.00;99.90;;;;;;4953786;28;20367;-80
2022/12/24 05:58:39;;;;;;;3.63;0.98;;;11.00;99.90;;;;;;4928934;29;20114;-80
2022/12/24 06:01:06;;;;;;;4.35;1.20;;;11.00;99.90;;;;;;4953426;29;20514;-81
2022/12/24 06:03:32;;;;;;;6.97;0.90;;;11.00;99.90;;;;;;4944351;29;20036;-80
2022/12/24 06:06:03;;;;;;;2.42;1.40;;;11.10;99.90;;;;;;4917120;29;20137;-80
2022/12/24 06:08:30;;;;;;;;;;;11.10;99.90;;;;;;4943916;29;20044;-81
2022/12/24 06:10:58;;;;;;;6.47;0.65;;;11.10;99.90;;;;;;4935621;29;20286;-81
2022/12/24 06:13:24;;;;;;;7.90;0.95;;;11.00;99.90;;;;;;4944098;29;20440;-82
2022/12/24 06:15:54;;;;;;;10.27;1.42;;;11.10;99.90;;;;;;4942126;29;20040;-81
2022/12/24 06:18:20;;;;;;;5.22;0.85;;;11.00;99.90;;;;;;4924758;29;20035;-81
2022/12/24 06:20:50;;;;;;;9.85;1.48;;;11.00;99.90;;;;;;4953836;28;20082;-81
2022/12/24 06:23:16;;;;;;;9.23;1.58;;;11.00;99.90;;;;;;4922209;29;20040;-80
2022/12/24 06:25:42;;;;;;;2.40;0.88;;;10.90;99.90;;;;;;4899349;29;20575;-81
2022/12/24 06:28:08;;;;;;;11.65;2.00;;;11.00;99.90;;;;;;4940726;29;20036;-81
2022/12/24 06:30:33;;;;;;;8.38;1.77;;;11.00;99.90;;;;;;4953055;29;20522;-81
2022/12/24 06:32:59;;;;;;;15.57;2.28;;;11.00;99.90;;;;;;4942923;29;20592;-80
2022/12/24 06:35:25;;;;;;;7.47;1.35;;;11.10;99.90;;;;;;4932160;29;20103;-81
2022/12/24 06:37:51;;;;;;;3.83;0.98;;;11.10;99.90;;;;;;4919651;29;20035;-81
2022/12/24 06:40:16;;;;;;;14.77;3.40;;;11.10;99.90;;;;;;4950793;29;20035;-81
2022/12/24 06:42:42;;;;;;;9.65;1.65;;;11.10;99.90;;;;;;4944917;29;20040;-81
2022/12/24 06:45:08;;;;;;;11.85;1.77;;;11.10;99.90;;;;;;4932490;29;20031;-81
2022/12/24 06:47:34;;;;;;;10.70;1.95;;;11.20;99.90;;;;;;4948734;29;20039;-81
2022/12/24 06:50:00;;;;;;;11.90;1.60;;;11.20;99.90;;;;;;4948295;29;20031;-81
2022/12/24 06:52:26;;;;;;;9.93;1.90;;;11.20;99.90;;;;;;4950065;29;20035;-81
2022/12/24 06:54:51;;;;;;;7.55;1.67;;;11.20;99.90;;;;;;4947232;28;20059;-80
2022/12/24 06:57:17;;;;;;;4.50;1.00;;;11.20;99.90;;;;;;4951240;29;20039;-81
2022/12/24 06:59:42;;;;;;;11.38;1.75;;;11.20;99.90;;;;;;4946019;29;20409;-81
2022/12/24 07:02:09;;;;;;;10.02;1.55;;;11.10;99.90;;;;;;4946198;29;20319;-81
2022/12/24 07:04:34;;;;;;;6.32;1.75;;;11.10;99.90;;;;;;4945788;28;20032;-81
2022/12/24 07:07:00;;;;;;;7.80;1.20;;;11.20;99.90;;;;;;4948208;29;20032;-81
2022/12/24 07:09:26;;;;;;;13.05;1.88;;;11.10;99.90;;;;;;4945706;29;20448;-80
2022/12/24 07:11:52;;;;;;;3.55;1.05;;;11.10;99.90;;;;;;4947116;29;20034;-81
2022/12/24 07:14:17;;;;;;;10.00;1.67;;;11.10;99.90;;;;;;4945584;29;20064;-81
2022/12/24 07:16:43;;;;;;;7.07;1.25;;;11.10;99.90;;;;;;4949431;28;20047;-81
2022/12/24 07:19:09;;;;;;;6.90;1.00;;;11.10;99.90;;;;;;4946098;29;20069;-81
2022/12/24 07:21:34;;;;;;;10.85;1.67;;;11.10;99.90;;;;;;4913646;29;20032;-82
2022/12/24 07:24:00;;;;;;;7.40;1.63;;;11.00;99.90;;;;;;4916668;29;20063;-81
2022/12/24 07:26:26;;;;;;;9.90;1.45;;;11.10;99.90;;;;;;4941093;23;20052;-70
2022/12/24 07:28:51;;;;;;;4.95;1.55;;;11.10;99.90;;;;;;4950420;29;20543;-72
2022/12/24 07:31:17;;;;;;;13.10;4.22;;;11.00;99.90;;;;;;4947042;28;20035;-70
2022/12/24 07:33:43;;;;;;;3.45;1.50;;;11.00;99.90;;;;;;4945443;29;20057;-70
2022/12/24 07:36:18;;;;;;;13.63;1.73;;;11.00;99.90;;;;;;4947925;28;20035;-70
2022/12/24 07:38:43;;;;;;;7.20;1.60;;;11.00;99.90;;;;;;4934328;29;20480;-71
2022/12/24 07:41:10;;;;;;;15.40;1.52;;;11.00;99.90;;;;;;4934371;29;20047;-72
2022/12/24 07:43:35;;;;;;;15.63;1.70;;;11.00;99.90;;;;;;4928006;29;20039;-70
2022/12/24 07:46:01;;;;;;;11.30;2.58;;;11.10;99.90;;;;;;4933938;29;20403;-73
2022/12/24 07:48:31;;;;;;;11.55;1.48;;;11.10;99.90;;;;;;4932521;29;20090;-70
2022/12/24 07:50:57;;;;;;;20.92;1.98;;;11.10;99.90;;;;;;4927773;29;20434;-70
2022/12/24 07:53:25;;;;;;;10.82;1.63;;;11.10;99.90;;;;;;4950463;29;20023;-71
2022/12/24 07:55:51;;;;;;;11.55;1.55;;;11.20;99.90;;;;;;4951758;28;20042;-71
2022/12/24 07:58:17;;;;;;;10.63;2.60;;;11.10;99.90;;;;;;4946272;28;20028;-69
2022/12/24 08:00:42;;;;;;;5.07;0.85;;;11.20;99.90;;;;;;4924851;29;20126;-70
2022/12/24 08:03:19;;;;;;;10.02;1.45;;;11.20;99.90;;;;;;4928648;29;20496;-69
2022/12/24 08:05:46;;;;;;;13.70;1.58;;;11.20;99.90;;;;;;4925149;29;20028;-70
2022/12/24 08:08:12;;;;;;;4.65;1.48;;;11.20;99.90;;;;;;4933340;29;20730;-69
2022/12/24 08:10:39;;;;;;;14.68;1.60;;;11.30;99.90;;;;;;4944115;29;20395;-70
2022/12/24 08:13:05;;;;;;;9.45;1.23;;;11.20;99.90;;;;;;4936078;28;20031;-70
2022/12/24 08:15:31;;;;;;;28.65;2.75;;;11.30;99.90;;;;;;4934933;29;20035;-70
2022/12/24 08:17:57;;;;;;;3.15;1.17;;;11.30;99.90;;;;;;4918279;29;20622;-70
2022/12/24 08:20:23;;;;;;;8.82;1.38;;;11.30;99.90;;;;;;4949691;29;20050;-70
2022/12/24 08:22:48;;;;;;;7.35;1.25;;;11.30;99.90;;;;;;4944429;29;20047;-70
2022/12/24 08:25:14;;;;;;;12.55;1.98;;;11.30;99.90;;;;;;4924238;29;20036;-70
2022/12/24 08:27:40;;;;;;;12.63;2.72;;;11.30;99.90;;;;;;4925873;29;20031;-70
2022/12/24 08:30:07;;;;;;;9.18;0.75;;;11.40;99.90;;;;;;4928069;29;20477;-70
2022/12/24 08:32:33;;;;;;;6.30;1.40;;;11.40;99.90;;;;;;4937935;28;20035;-72
2022/12/24 08:34:58;;;;;;;4.93;1.13;;;11.40;99.90;;;;;;4935437;28;20039;-73
2022/12/24 08:37:24;;;;;;;6.75;1.60;;;11.50;99.90;;;;;;4935469;29;20373;-74
2022/12/24 08:39:50;;;;;;;5.13;1.83;;;11.50;99.90;;;;;;4936324;29;20046;-76
2022/12/24 08:42:16;;;;;;;10.23;1.30;;;11.60;99.90;;;;;;4945199;28;20208;-58
2022/12/24 08:44:41;;;;;;;13.90;2.33;;;11.50;99.90;;;;;;4945344;29;20067;-60
2022/12/24 08:47:07;;;;;;;11.85;1.40;;;11.60;99.90;;;;;;4896950;29;20101;-66
2022/12/24 08:49:33;;;;;;;11.35;1.58;;;11.50;99.90;;;;;;4913091;29;20047;-65
2022/12/24 08:51:58;;;;;;;5.55;1.40;;;11.50;99.90;;;;;;4908203;29;20072;-67
2022/12/24 08:54:25;;;;;;;1.40;0.93;;;11.50;99.90;;;;;;4910470;29;20472;-66
2022/12/24 08:56:50;;;;;;;15.85;2.08;;;11.40;99.90;;;;;;4924664;29;20035;-68
2022/12/24 08:59:16;;;;;;;12.80;2.22;;;11.60;99.90;;;;;;4906397;29;20107;-66
2022/12/24 09:01:42;;;;;;;11.52;1.65;;;11.60;99.90;;;;;;4925316;29;20036;-67
2022/12/24 09:04:08;;;;;;;2.85;1.02;;;11.60;99.90;;;;;;4917293;29;20070;-66
2022/12/24 09:06:34;;;;;;;20.13;2.28;;;11.60;99.90;;;;;;4927700;29;20036;-68
2022/12/24 09:09:01;;;;;;;3.65;1.67;;;11.60;99.90;;;;;;4935012;29;20515;-66
2022/12/24 09:11:27;;;;;;;12.73;1.60;;;11.50;99.90;;;;;;4926387;29;20556;-67
2022/12/24 09:13:53;;;;;;;14.13;2.95;;;11.60;99.90;;;;;;4931757;29;20032;-65
2022/12/24 09:16:19;;;;;;;3.42;0.80;;;11.70;99.90;;;;;;4922136;29;20071;-67
2022/12/24 09:18:45;;;;;;;12.32;1.63;;;11.70;99.90;;;;;;4919488;29;20134;-66
2022/12/24 09:21:14;;;;;;;8.60;1.67;;;11.80;99.90;;;;;;4926985;29;20040;-65
2022/12/24 09:23:43;;;;;;;5.78;1.55;;;11.90;99.90;;;;;;4922904;29;20031;-66
2022/12/24 09:26:21;;;;;;;9.30;1.60;;;11.80;99.90;;;;;;4920344;29;20514;-66
2022/12/24 09:28:49;;;;;;;4.30;2.25;;;11.80;99.90;;;;;;4908299;29;20040;-66
2022/12/24 09:31:15;;;;;;;8.25;1.60;;;11.90;99.90;;;;;;4915176;29;20480;-66
2022/12/24 09:33:43;;;;;;;7.57;1.90;;;12.10;99.90;;;;;;4922356;29;20448;-67
2022/12/24 09:36:09;;;;;;;14.10;1.80;;;12.00;99.90;;;;;;4919024;29;20024;-65
2022/12/24 09:38:38;;;;;;;8.20;2.42;;;12.10;99.90;;;;;;4915736;29;20031;-67
2022/12/24 09:41:21;;;;;;;13.73;2.03;;;12.30;99.90;;;;;;4923146;29;20024;-67
2022/12/24 09:43:55;;;;;;;13.20;1.45;;;12.40;99.90;;;;;;4941015;29;20459;-68
2022/12/24 09:46:29;;;;;;;3.72;1.10;;;12.80;99.90;;;;;;4915220;29;20028;-69
2022/12/24 09:49:01;;;;;;;10.82;1.48;;;12.80;99.90;;;;;;4915094;29;20031;-70
2022/12/24 09:51:40;;;;;;;11.40;2.60;;;12.80;99.90;;;;;;4922263;29;20087;-68
2022/12/24 09:54:29;;;;;;;5.80;1.38;;;12.90;99.90;;;;;;4914080;29;20100;-68
2022/12/24 09:57:03;;;;;;;6.35;1.10;;;12.80;99.90;;;;;;4916686;29;20582;-70
2022/12/24 09:59:43;;;;;;;4.13;1.13;;;12.80;99.90;;;;;;4919506;29;20039;-67
2022/12/24 10:02:18;;;;;;;13.90;2.97;;;12.90;99.90;;;;;;4928616;29;20046;-69
2022/12/24 10:04:46;;;;;;;9.55;1.45;;;12.80;99.90;;;;;;4917072;29;20191;-69
2022/12/24 10:07:41;;;;;;;11.15;1.20;;;13.00;99.90;;;;;;4926139;29;20340;-68
2022/12/24 10:10:36;;;;;;;17.80;2.47;;;13.50;99.90;;;;;;4924001;29;20528;-69
2022/12/24 10:13:20;;;;;;;2.42;1.05;;;14.40;99.90;;;;;;4928609;29;20046;-68
2022/12/24 10:16:16;;;;;;;16.70;1.88;;;14.10;99.90;;;;;;4897315;29;20038;-68
2022/12/24 10:19:15;;;;;;;8.20;1.95;;;13.70;99.90;;;;;;4924401;29;20131;-69
2022/12/24 10:21:49;;;;;;;9.13;1.58;;;13.60;99.90;;;;;;4926143;29;20036;-69
2022/12/24 10:24:26;;;;;;;6.53;1.65;;;13.30;99.90;;;;;;4927989;29;20042;-68
2022/12/24 10:27:04;;;;;;;12.57;1.35;;;13.10;99.90;;;;;;4907255;29;20118;-68
2022/12/24 10:29:35;;;;;;;1.15;0.60;;;13.00;99.90;;;;;;4927197;29;20037;-68
2022/12/24 10:32:07;;;;;;;8.48;1.88;;;13.00;99.90;;;;;;4906695;29;20039;-68
2022/12/24 10:34:41;;;;;;;8.48;1.08;;;13.10;99.90;;;;;;4914398;29;20044;-68
2022/12/24 10:37:15;;;;;;;16.45;1.63;;;13.00;99.90;;;;;;4926323;29;20059;-68
2022/12/24 10:39:42;;;;;;;6.75;1.15;;;12.90;99.90;;;;;;4908093;29;20043;-68
2022/12/24 10:42:10;;;;;;;7.55;2.47;;;12.90;99.90;;;;;;4929013;29;20476;-68
2022/12/24 10:44:35;;;;;;;4.38;1.27;;;12.90;99.90;;;;;;4914249;29;20121;-68
2022/12/24 10:47:05;;;;;;;3.25;1.10;;;13.00;99.90;;;;;;4914706;29;20238;-68
2022/12/24 10:49:59;;;;;;;12.23;1.83;;;13.00;99.90;;;;;;4901365;29;20090;-68
2022/12/24 10:52:33;;;;;;;14.05;1.60;;;13.10;99.90;;;;;;4919368;29;20063;-68
2022/12/24 10:55:17;;;;;;;6.22;1.90;;;13.20;99.90;;;;;;4924156;29;20107;-68
2022/12/24 10:57:46;;;;;;;2.78;0.80;;;13.50;99.90;;;;;;4923099;29;20114;-68
2022/12/24 11:00:22;;;;;;;9.02;1.30;;;13.30;99.90;;;;;;4919629;29;20067;-68
2022/12/24 11:02:49;;;;;;;5.30;2.10;;;13.40;99.90;;;;;;4915303;29;20028;-68
2022/12/24 11:05:34;;;;;;;17.80;2.40;;;13.30;99.90;;;;;;4913304;29;20047;-68
2022/12/24 11:08:16;;;;;;;8.20;1.73;;;13.00;99.90;;;;;;4937085;29;20040;-68
2022/12/24 11:11:03;;;;;;;7.03;1.13;;;12.90;99.90;;;;;;4918127;29;20138;-68
2022/12/24 11:13:33;;;;;;;6.35;1.30;;;12.80;99.90;;;;;;4923189;29;20025;-68
2022/12/24 11:16:34;;;;;;;10.60;1.97;;;13.00;99.90;;;;;;4919534;29;20036;-68
2022/12/24 11:19:13;;;;;;;5.75;1.50;;;13.20;99.90;;;;;;4917621;29;20356;-68
2022/12/24 11:21:40;;;;;;;6.15;0.88;;;13.40;99.90;;;;;;4918320;29;20028;-68
2022/12/24 11:24:12;;;;;;;10.85;1.42;;;13.40;99.90;;;;;;4928283;29;20035;-67
2022/12/24 11:26:43;;;;;;;4.68;1.40;;;13.40;99.90;;;;;;4925334;29;20497;-68
2022/12/24 11:29:16;;;;;;;10.82;1.50;;;13.40;99.90;;;;;;4928498;29;20242;-68
2022/12/24 11:31:44;;;;;;;9.38;1.02;;;13.50;99.90;;;;;;4918674;29;20036;-68
2022/12/24 11:34:28;;;;;;;6.43;1.52;;;13.60;99.90;;;;;;4929730;29;20377;-68
2022/12/24 11:37:23;;;;;;;10.20;1.65;;;13.40;99.90;;;;;;4923033;29;20370;-67
2022/12/24 11:40:01;;;;;;;11.85;1.33;;;13.20;99.90;;;;;;4902611;29;20048;-68
2022/12/24 11:42:35;;;;;;;9.18;2.08;;;13.20;99.90;;;;;;4922735;29;20036;-68
2022/12/24 11:45:13;;;;;;;11.07;2.40;;;13.10;99.90;;;;;;4928560;29;20488;-68
2022/12/24 11:47:39;;;;;;;6.25;0.95;;;13.10;99.90;;;;;;4925384;29;20059;-68
2022/12/24 11:50:36;;;;;;;10.73;2.80;;;13.10;99.90;;;;;;4900431;29;20643;-68
2022/12/24 11:53:01;;;;;;;8.90;2.28;;;13.00;99.90;;;;;;4917280;29;20035;-68
2022/12/24 11:55:59;;;;;;;4.50;1.15;;;12.90;99.90;;;;;;4914316;29;20040;-68
2022/12/24 11:58:46;;;;;;;5.05;1.52;;;13.00;99.90;;;;;;4924490;29;20043;-68
2022/12/24 12:01:38;;;;;;;4.80;2.25;;;13.00;99.90;;;;;;4926409;29;20027;-67
2022/12/24 12:04:11;;;;;;;3.47;0.82;;;12.90;99.90;;;;;;4922368;29;20024;-67
2022/12/24 12:06:59;;;;;;;4.80;1.55;;;13.40;99.90;;;;;;4924827;29;20572;-68
2022/12/24 12:09:36;;;;;;;14.65;2.40;;;13.80;99.90;;;;;;4930894;29;20369;-67
2022/12/24 12:12:23;;;;;;;3.70;1.17;;;14.70;99.90;;;;;;4915632;29;20036;-66
2022/12/24 12:15:01;;;;;;;11.15;1.50;;;16.00;99.90;;;;;;4911312;29;20043;-66
2022/12/24 12:17:55;;;;;;;5.57;2.03;;;16.50;99.90;;;;;;4922814;29;20031;-66
2022/12/24 12:20:40;;;;;;;5.55;1.50;;;15.60;99.90;;;;;;4917706;29;20024;-68
2022/12/24 12:23:28;;;;;;;7.28;2.22;;;15.60;99.90;;;;;;4924535;29;20567;-69
2022/12/24 12:26:03;;;;;;;10.32;1.88;;;15.10;99.90;;;;;;4919309;29;20043;-68
2022/12/24 12:29:26;;;;;;;9.88;1.08;;;14.70;99.90;;;;;;4926786;29;20047;-69
2022/12/24 12:32:00;;;;;;;10.45;1.65;;;15.10;99.90;;;;;;4858272;29;20040;-66
2022/12/24 12:34:26;;;;;;;11.23;2.00;;;16.10;99.90;;;;;;4923576;29;20024;-67
2022/12/24 12:37:16;;;;;;;4.47;1.05;;;15.60;99.90;;;;;;4921017;29;20032;-69
2022/12/24 12:39:42;;;;;;;11.00;1.10;;;15.40;99.90;;;;;;4912695;29;20068;-67
2022/12/24 12:42:27;;;;;;;5.65;1.40;;;15.20;99.90;;;;;;4934665;29;20472;-68
2022/12/24 12:45:33;;;;;;;8.15;1.38;;;14.90;99.90;;;;;;4924198;29;20525;-67
2022/12/24 12:48:26;;;;;;;4.03;1.00;;;14.60;99.90;;;;;;4922370;29;20399;-68
2022/12/24 12:50:57;;;;;;;5.15;1.30;;;14.40;99.90;;;;;;4914035;29;20032;-68
2022/12/24 12:54:27;;;;;;;6.60;0.82;;;14.10;99.90;;;;;;4917507;29;20488;-68
2022/12/24 12:57:00;;;;;;;3.15;0.88;;;13.60;99.90;;;;;;4871426;29;20116;-69
2022/12/24 12:59:31;;;;;;;5.97;2.13;;;13.60;99.90;;;;;;4918525;29;20047;-69
2022/12/24 13:02:30;;;;;;;5.05;2.03;;;13.50;99.90;;;;;;4924796;29;20442;-75
2022/12/24 13:05:37;;;;;;;11.38;1.95;;;13.60;99.90;;;;;;4914847;29;20693;-69
2022/12/24 13:08:42;;;;;;;3.00;0.70;;;13.30;99.90;;;;;;4931238;29;20067;-69
2022/12/24 13:11:29;;;;;;;10.40;1.42;;;13.30;99.90;;;;;;4912283;29;20036;-80
2022/12/24 13:14:30;;;;;;;13.02;2.28;;;13.20;99.90;;;;;;4918372;29;20038;-68
2022/12/24 13:17:41;;;;;;;7.63;1.53;;;13.10;99.90;;;;;;4921018;29;20043;-69
2022/12/24 13:20:23;;;;;;;12.20;1.70;;;13.00;99.90;;;;;;4919534;29;20306;-68
2022/12/24 13:23:10;;;;;;;3.38;1.00;;;13.00;99.90;;;;;;4911046;29;20044;-68